Time;durP1;ratioP1;P1;durP2;ratioP2;P2;SDS_P1;SDS_P2;PMS_P1;PMS_P2;Temp;Humidity;BMP_temperature;BMP_pressure;BME280_temperature;BME280_humidity;BME280_pressure;Samples;Min_cycle;Max_cycle;Signal;HPM_P1;HPM_P2
2021/04/03 00:00:01;;;;;;;7.03;5.27;;;4.90;99.90;;;;;;4996915;28;20653;-77
2021/04/03 00:02:28;;;;;;;8.17;5.23;;;4.90;99.90;;;;;;4996936;28;20172;-77
2021/04/03 00:04:54;;;;;;;6.77;5.80;;;4.80;99.90;;;;;;4996861;28;20168;-77
2021/04/03 00:07:19;;;;;;;10.07;5.73;;;4.80;99.90;;;;;;4996633;28;20265;-78
2021/04/03 00:09:45;;;;;;;7.67;5.87;;;4.70;99.90;;;;;;4997205;28;20712;-77
2021/04/03 00:12:11;;;;;;;9.57;5.07;;;4.70;99.90;;;;;;4997381;28;20187;-77
2021/04/03 00:14:37;;;;;;;32.47;15.83;;;4.60;99.90;;;;;;4996498;28;20180;-78
2021/04/03 00:17:03;;;;;;;26.93;16.17;;;4.60;99.90;;;;;;4996264;28;20210;-77
2021/04/03 00:19:29;;;;;;;24.27;15.40;;;4.50;99.90;;;;;;4996024;28;20206;-77
2021/04/03 00:21:54;;;;;;;15.10;11.10;;;4.40;99.90;;;;;;4996511;28;20172;-77
2021/04/03 00:24:20;;;;;;;13.70;10.53;;;4.40;99.90;;;;;;4995864;28;20180;-77
2021/04/03 00:26:46;;;;;;;8.77;6.50;;;4.40;99.90;;;;;;4995535;28;20808;-77
2021/04/03 00:29:12;;;;;;;9.57;6.50;;;4.30;99.90;;;;;;4995930;28;20289;-77
2021/04/03 00:31:37;;;;;;;8.63;5.50;;;4.30;99.90;;;;;;5027150;28;20184;-77
2021/04/03 00:34:03;;;;;;;8.60;5.50;;;4.20;99.90;;;;;;4994159;28;20555;-77
2021/04/03 00:36:29;;;;;;;10.20;5.57;;;4.10;99.90;;;;;;4995379;28;20555;-77
2021/04/03 00:38:55;;;;;;;10.67;5.80;;;4.20;99.90;;;;;;4995770;28;20178;-77
2021/04/03 00:41:20;;;;;;;9.77;6.00;;;4.10;99.90;;;;;;4994496;28;20175;-77
2021/04/03 00:43:46;;;;;;;8.57;5.97;;;4.10;99.90;;;;;;5027335;28;20211;-77
2021/04/03 00:46:11;;;;;;;8.13;5.70;;;4.10;99.90;;;;;;5027075;28;20204;-77
2021/04/03 00:48:38;;;;;;;9.40;6.50;;;4.10;99.90;;;;;;4994694;28;20238;-77
2021/04/03 00:51:04;;;;;;;13.07;7.13;;;4.10;99.90;;;;;;4995369;28;20191;-77
2021/04/03 00:53:31;;;;;;;10.20;6.50;;;4.10;99.90;;;;;;4995551;28;20171;-77
2021/04/03 00:55:56;;;;;;;13.67;7.20;;;4.10;99.90;;;;;;4994603;28;20290;-77
2021/04/03 00:58:23;;;;;;;8.83;6.07;;;4.20;99.90;;;;;;4994725;28;20275;-77
2021/04/03 01:00:49;;;;;;;11.27;6.73;;;4.10;99.90;;;;;;5026565;28;20186;-77
2021/04/03 01:03:15;;;;;;;8.80;6.03;;;4.10;99.90;;;;;;4995354;28;20239;-77
2021/04/03 01:05:42;;;;;;;9.73;6.57;;;4.20;99.90;;;;;;4995010;28;20182;-77
2021/04/03 01:08:07;;;;;;;7.87;6.00;;;4.20;99.90;;;;;;4995164;28;20271;-77
2021/04/03 01:10:40;;;;;;;7.87;5.97;;;4.20;99.90;;;;;;4995301;28;20218;-77
2021/04/03 01:13:51;;;;;;;7.47;5.60;;;4.20;99.90;;;;;;4995166;28;20171;-77
2021/04/03 01:16:19;;;;;;;10.23;5.43;;;4.20;99.90;;;;;;4993742;28;20253;-77
2021/04/03 01:19:10;;;;;;;8.83;5.50;;;4.10;99.90;;;;;;4995140;28;20229;-77
2021/04/03 01:22:03;;;;;;;5.40;4.30;;;4.10;99.90;;;;;;4995156;28;20669;-77
2021/04/03 01:24:51;;;;;;;7.13;5.10;;;4.00;99.90;;;;;;4995340;28;20636;-77
2021/04/03 01:27:25;;;;;;;7.33;4.93;;;3.90;99.90;;;;;;4994143;28;20442;-77
2021/04/03 01:30:18;;;;;;;6.77;4.80;;;3.80;99.90;;;;;;4993794;28;20710;-77
2021/04/03 01:32:59;;;;;;;7.40;4.83;;;3.80;99.90;;;;;;4993837;28;20175;-77
2021/04/03 01:35:29;;;;;;;5.93;5.00;;;3.70;99.90;;;;;;4993964;28;20250;-77
2021/04/03 01:38:05;;;;;;;7.63;5.17;;;3.60;99.90;;;;;;4995092;28;20196;-77
2021/04/03 01:40:33;;;;;;;7.10;5.57;;;3.60;99.90;;;;;;4995160;28;20218;-77
2021/04/03 01:43:08;;;;;;;6.40;5.03;;;3.60;99.90;;;;;;4995042;28;20403;-77
2021/04/03 01:45:34;;;;;;;8.47;5.97;;;3.60;99.90;;;;;;4994490;28;20160;-77
2021/04/03 01:48:01;;;;;;;7.80;5.37;;;3.50;99.90;;;;;;4994868;28;20179;-77
2021/04/03 01:50:28;;;;;;;8.10;5.27;;;3.50;99.90;;;;;;4994832;28;20172;-77
2021/04/03 01:52:54;;;;;;;8.13;6.03;;;3.50;99.90;;;;;;4994669;28;20194;-77
2021/04/03 01:55:21;;;;;;;6.97;5.23;;;3.50;99.90;;;;;;4994733;28;20182;-77
2021/04/03 01:57:50;;;;;;;9.17;5.37;;;3.50;99.90;;;;;;4994539;28;20253;-77
2021/04/03 02:00:21;;;;;;;7.87;5.43;;;3.50;99.90;;;;;;4994720;28;20186;-77
2021/04/03 02:02:59;;;;;;;8.17;5.80;;;3.40;99.90;;;;;;4993775;28;20188;-77
2021/04/03 02:05:26;;;;;;;8.27;5.90;;;3.40;99.90;;;;;;4994351;28;20526;-77
2021/04/03 02:07:53;;;;;;;8.00;6.10;;;3.40;99.90;;;;;;4993193;28;20187;-77
2021/04/03 02:10:27;;;;;;;9.17;5.90;;;3.30;99.90;;;;;;4995374;28;20433;-77
2021/04/03 02:12:53;;;;;;;8.93;5.97;;;3.40;99.90;;;;;;4998453;28;20395;-77
2021/04/03 02:15:21;;;;;;;10.60;6.07;;;3.40;99.90;;;;;;4998408;28;20529;-77
2021/04/03 02:17:50;;;;;;;8.73;6.20;;;3.40;99.90;;;;;;4998550;28;20559;-77
2021/04/03 02:20:16;;;;;;;11.43;6.03;;;3.30;99.90;;;;;;5029780;28;20187;-77
2021/04/03 02:22:43;;;;;;;7.10;5.43;;;3.20;99.90;;;;;;4998172;28;20244;-77
2021/04/03 02:25:11;;;;;;;8.07;6.00;;;3.20;99.90;;;;;;4996352;28;20207;-77
2021/04/03 02:27:37;;;;;;;9.57;6.27;;;3.10;99.90;;;;;;4997713;28;20622;-77
2021/04/03 02:30:12;;;;;;;8.57;5.93;;;3.10;99.90;;;;;;4997810;28;20188;-77
2021/04/03 02:32:41;;;;;;;9.23;6.33;;;3.10;99.90;;;;;;4997810;28;20526;-77
2021/04/03 02:35:07;;;;;;;7.90;5.70;;;3.10;99.90;;;;;;4997323;28;20262;-77
2021/04/03 02:37:33;;;;;;;8.73;5.97;;;3.10;99.90;;;;;;4997649;28;20673;-77
2021/04/03 02:39:59;;;;;;;9.67;6.30;;;3.10;99.90;;;;;;4997495;28;20419;-77
2021/04/03 02:42:27;;;;;;;9.07;5.87;;;3.00;99.90;;;;;;4997617;28;20540;-77
2021/04/03 02:44:57;;;;;;;8.20;5.97;;;3.00;99.90;;;;;;4997577;28;20182;-77
2021/04/03 02:47:39;;;;;;;8.93;6.00;;;3.00;99.90;;;;;;4996035;28;20538;-77
2021/04/03 02:50:45;;;;;;;10.50;6.10;;;3.00;99.90;;;;;;4997241;28;20183;-77
2021/04/03 02:53:12;;;;;;;9.20;5.47;;;2.90;99.90;;;;;;4959261;28;20190;-77
2021/04/03 02:55:44;;;;;;;11.93;5.90;;;2.80;99.90;;;;;;4992649;28;20419;-77
2021/04/03 02:58:11;;;;;;;8.07;5.90;;;2.80;99.90;;;;;;4996977;28;20191;-77
2021/04/03 03:00:38;;;;;;;9.10;5.77;;;2.80;99.90;;;;;;4996953;28;20222;-77
2021/04/03 03:03:05;;;;;;;11.30;6.83;;;2.80;99.90;;;;;;4995612;28;20186;-77
2021/04/03 03:05:32;;;;;;;8.27;5.20;;;2.70;99.90;;;;;;4996558;28;20186;-77
2021/04/03 03:07:58;;;;;;;8.13;4.93;;;2.60;99.90;;;;;;4995412;28;20287;-77
2021/04/03 03:10:24;;;;;;;7.63;5.00;;;2.70;99.90;;;;;;4995007;28;20435;-77
2021/04/03 03:12:51;;;;;;;9.13;5.40;;;2.50;99.90;;;;;;4996409;28;20691;-77
2021/04/03 03:15:19;;;;;;;8.10;5.27;;;2.50;99.90;;;;;;4996856;28;20641;-77
2021/04/03 03:17:46;;;;;;;7.60;5.13;;;2.50;99.90;;;;;;4995423;28;20575;-77
2021/04/03 03:20:14;;;;;;;9.43;6.03;;;2.50;99.90;;;;;;4996865;28;20183;-77
2021/04/03 03:22:44;;;;;;;7.97;5.00;;;2.60;99.90;;;;;;4994266;28;20199;-77
2021/04/03 03:25:10;;;;;;;9.43;4.73;;;2.60;99.90;;;;;;4996732;28;20493;-77
2021/04/03 03:27:38;;;;;;;7.73;5.03;;;2.70;99.90;;;;;;4996694;28;20207;-77
2021/04/03 03:30:06;;;;;;;7.33;5.13;;;2.70;99.90;;;;;;4995628;28;20515;-77
2021/04/03 03:32:32;;;;;;;9.40;5.20;;;2.80;99.90;;;;;;4995177;28;20234;-77
2021/04/03 03:34:58;;;;;;;5.67;4.73;;;2.80;99.90;;;;;;4995396;28;20545;-77
2021/04/03 03:37:25;;;;;;;15.00;4.80;;;2.90;99.90;;;;;;4996403;28;20291;-77
2021/04/03 03:39:52;;;;;;;8.67;5.20;;;2.90;99.90;;;;;;5028079;28;20180;-78
2021/04/03 03:42:19;;;;;;;9.83;4.87;;;2.80;99.90;;;;;;4996820;28;20824;-77
2021/04/03 03:44:45;;;;;;;7.03;4.50;;;2.80;99.90;;;;;;4994982;28;20210;-77
2021/04/03 03:47:10;;;;;;;8.37;4.60;;;2.80;99.90;;;;;;4995933;28;20235;-77
2021/04/03 03:49:36;;;;;;;6.07;4.50;;;2.70;99.90;;;;;;4995415;28;20215;-77
2021/04/03 03:52:03;;;;;;;9.23;3.97;;;2.70;99.90;;;;;;4995858;28;20183;-77
2021/04/03 03:54:29;;;;;;;7.37;4.10;;;2.70;99.90;;;;;;4994437;28;20187;-77
2021/04/03 03:56:55;;;;;;;10.53;3.93;;;2.70;99.90;;;;;;4994214;28;20219;-77
2021/04/03 03:59:21;;;;;;;7.30;4.37;;;2.60;99.90;;;;;;4995881;28;20182;-77
2021/04/03 04:01:46;;;;;;;12.33;4.53;;;2.70;99.90;;;;;;4995657;28;20233;-77
2021/04/03 04:04:12;;;;;;;6.23;3.77;;;2.60;99.90;;;;;;4994234;28;20637;-77
2021/04/03 04:06:38;;;;;;;9.10;3.90;;;2.60;99.90;;;;;;4994468;28;20203;-77
2021/04/03 04:09:04;;;;;;;6.10;4.30;;;2.60;99.90;;;;;;4995612;28;20186;-77
2021/04/03 04:11:30;;;;;;;8.13;4.27;;;2.60;99.90;;;;;;4994423;28;20190;-77
2021/04/03 04:13:56;;;;;;;7.00;3.90;;;2.70;99.90;;;;;;4995633;28;20211;-77
2021/04/03 04:16:22;;;;;;;13.00;4.50;;;2.60;99.90;;;;;;4995316;28;20289;-77
2021/04/03 04:18:47;;;;;;;8.23;5.00;;;2.70;99.90;;;;;;4995792;28;20211;-77
2021/04/03 04:21:13;;;;;;;11.97;4.20;;;2.60;99.90;;;;;;4994362;28;20218;-77
2021/04/03 04:23:39;;;;;;;5.53;4.10;;;2.60;99.90;;;;;;4995915;28;20705;-77
2021/04/03 04:26:04;;;;;;;16.13;4.33;;;2.60;99.90;;;;;;4996249;28;20200;-77
2021/04/03 04:28:30;;;;;;;7.40;4.00;;;2.60;99.90;;;;;;4994133;28;20187;-77
2021/04/03 04:30:56;;;;;;;7.43;3.93;;;2.50;99.90;;;;;;4995498;28;20602;-77
2021/04/03 04:33:21;;;;;;;6.40;3.90;;;2.60;99.90;;;;;;4995039;28;20620;-77
2021/04/03 04:35:47;;;;;;;7.10;4.10;;;2.50;99.90;;;;;;4994756;28;20199;-77
2021/04/03 04:38:12;;;;;;;7.13;4.57;;;2.60;99.90;;;;;;4995349;28;20172;-77
2021/04/03 04:40:38;;;;;;;11.53;4.30;;;2.60;99.90;;;;;;4995095;28;20202;-77
2021/04/03 04:43:04;;;;;;;8.67;4.23;;;2.60;99.90;;;;;;4995239;28;20180;-77
2021/04/03 04:45:29;;;;;;;7.33;4.40;;;2.50;99.90;;;;;;4995094;28;20187;-77
2021/04/03 04:47:55;;;;;;;9.77;4.50;;;2.50;99.90;;;;;;4995272;28;20180;-77
2021/04/03 04:50:21;;;;;;;7.57;4.07;;;2.50;99.90;;;;;;5026638;28;20187;-77
2021/04/03 04:52:48;;;;;;;8.20;4.13;;;2.40;99.90;;;;;;4994842;28;20543;-77
2021/04/03 04:55:14;;;;;;;5.53;3.90;;;2.50;99.90;;;;;;4993815;28;20184;-77
2021/04/03 04:57:39;;;;;;;14.07;5.13;;;2.50;99.90;;;;;;4994598;28;20215;-77
2021/04/03 05:00:06;;;;;;;7.30;4.33;;;2.50;99.90;;;;;;4994814;28;20179;-77
2021/04/03 05:02:32;;;;;;;7.20;4.43;;;2.40;99.90;;;;;;4994685;28;20208;-77
2021/04/03 05:04:57;;;;;;;8.83;4.80;;;2.40;99.90;;;;;;4994621;28;20414;-77
2021/04/03 05:07:23;;;;;;;7.43;4.47;;;2.40;99.90;;;;;;4994666;28;20480;-77
2021/04/03 05:09:49;;;;;;;12.43;4.60;;;2.40;99.90;;;;;;4995051;28;20540;-77
2021/04/03 05:12:14;;;;;;;10.57;4.00;;;2.40;99.90;;;;;;4994939;28;20179;-77
2021/04/03 05:14:40;;;;;;;12.03;4.50;;;2.40;99.90;;;;;;4994586;28;20181;-77
2021/04/03 05:17:06;;;;;;;6.53;4.43;;;2.40;99.90;;;;;;4993419;28;20215;-77
2021/04/03 05:19:31;;;;;;;6.40;3.87;;;2.40;99.90;;;;;;4994554;28;20176;-77
2021/04/03 05:21:57;;;;;;;10.33;4.70;;;2.40;99.90;;;;;;4994842;28;20186;-77
2021/04/03 05:24:23;;;;;;;8.00;4.47;;;2.30;99.90;;;;;;4994350;28;20203;-77
2021/04/03 05:26:48;;;;;;;7.27;4.60;;;2.40;99.90;;;;;;4994518;28;20199;-77
2021/04/03 05:29:14;;;;;;;6.77;4.33;;;2.40;99.90;;;;;;4994262;28;20210;-78
2021/04/03 05:31:40;;;;;;;7.23;4.60;;;2.40;99.90;;;;;;5026376;28;20668;-77
2021/04/03 05:34:05;;;;;;;6.53;4.57;;;2.40;99.90;;;;;;4993990;28;20180;-78
2021/04/03 05:36:31;;;;;;;13.57;4.73;;;2.40;99.90;;;;;;4994521;28;20218;-77
2021/04/03 05:38:57;;;;;;;7.10;4.17;;;2.50;99.90;;;;;;4995834;28;20172;-77
2021/04/03 05:41:23;;;;;;;10.27;4.53;;;2.50;99.90;;;;;;4994843;28;20183;-77
2021/04/03 05:43:51;;;;;;;7.87;4.97;;;2.50;99.90;;;;;;4994869;28;20172;-78
2021/04/03 05:46:19;;;;;;;8.40;4.37;;;2.50;99.90;;;;;;4995949;28;20238;-77
2021/04/03 05:48:46;;;;;;;7.53;4.47;;;2.40;99.90;;;;;;4998726;28;20202;-77
2021/04/03 05:51:14;;;;;;;7.33;4.20;;;2.50;99.90;;;;;;4997411;28;20514;-77
2021/04/03 05:53:40;;;;;;;10.80;4.30;;;2.60;99.90;;;;;;4997157;28;20190;-77
2021/04/03 05:56:06;;;;;;;6.90;4.10;;;2.60;99.90;;;;;;4996736;28;20466;-77
2021/04/03 05:58:32;;;;;;;10.43;4.73;;;2.50;99.90;;;;;;4998768;28;20156;-78
2021/04/03 06:00:58;;;;;;;9.93;4.40;;;2.60;99.90;;;;;;4998803;28;20175;-78
2021/04/03 06:03:24;;;;;;;5.77;4.47;;;2.50;99.90;;;;;;4997407;28;20179;-78
2021/04/03 06:05:51;;;;;;;10.03;4.07;;;2.60;99.90;;;;;;4997136;28;20715;-77
2021/04/03 06:08:17;;;;;;;10.63;4.57;;;2.60;99.90;;;;;;4998313;28;20171;-77
2021/04/03 06:11:12;;;;;;;12.70;4.47;;;2.70;99.90;;;;;;4998631;28;20226;-77
2021/04/03 06:13:38;;;;;;;5.73;4.27;;;2.70;99.90;;;;;;5029794;28;20175;-77
2021/04/03 06:16:30;;;;;;;8.50;4.07;;;2.80;99.90;;;;;;4998316;28;20598;-77
2021/04/03 06:19:08;;;;;;;6.80;4.00;;;2.80;99.90;;;;;;4997404;28;20229;-77
2021/04/03 06:21:33;;;;;;;7.20;4.73;;;2.90;99.90;;;;;;4996993;28;20175;-78
2021/04/03 06:23:59;;;;;;;8.30;4.23;;;2.90;99.90;;;;;;4997337;28;20176;-76
2021/04/03 06:26:26;;;;;;;7.47;4.30;;;3.00;99.90;;;;;;4996156;28;20249;-77
2021/04/03 06:28:51;;;;;;;8.37;4.40;;;3.00;99.90;;;;;;4997899;28;20230;-78
2021/04/03 06:31:18;;;;;;;6.83;4.03;;;3.10;99.90;;;;;;4998037;28;20410;-79
2021/04/03 06:33:47;;;;;;;10.70;5.23;;;3.10;99.90;;;;;;4998995;28;20262;-78
2021/04/03 06:36:15;;;;;;;10.80;5.00;;;3.10;99.90;;;;;;4998352;28;20207;-78
2021/04/03 06:38:47;;;;;;;10.07;4.03;;;3.30;99.90;;;;;;5030952;28;20629;-79
2021/04/03 06:41:22;;;;;;;4.43;3.83;;;3.30;99.90;;;;;;5032009;28;20663;-78
2021/04/03 06:44:06;;;;;;;9.23;4.00;;;3.40;99.90;;;;;;4998107;28;20179;-79
2021/04/03 06:46:33;;;;;;;11.17;3.70;;;3.50;99.90;;;;;;4998654;28;20231;-80
2021/04/03 06:48:59;;;;;;;5.43;3.47;;;3.50;99.90;;;;;;4998514;28;20207;-78
2021/04/03 06:51:26;;;;;;;7.43;4.13;;;3.50;99.90;;;;;;4998775;28;20199;-79
2021/04/03 06:53:53;;;;;;;11.67;4.00;;;3.50;99.90;;;;;;4997058;28;20544;-79
2021/04/03 06:56:21;;;;;;;6.27;3.63;;;3.50;99.90;;;;;;4998330;28;20227;-78
2021/04/03 06:58:48;;;;;;;4.63;3.63;;;3.70;99.90;;;;;;4999620;28;20160;-78
2021/04/03 07:01:17;;;;;;;6.43;4.13;;;3.80;99.90;;;;;;4997785;28;20247;-77
2021/04/03 07:03:47;;;;;;;6.80;4.17;;;3.80;99.90;;;;;;4996263;28;20179;-78
2021/04/03 07:06:13;;;;;;;10.83;5.03;;;3.80;99.90;;;;;;4996955;28;20286;-78
2021/04/03 07:08:39;;;;;;;8.90;4.17;;;3.90;99.90;;;;;;4998214;28;20633;-78
2021/04/03 07:11:07;;;;;;;6.50;4.00;;;3.90;99.90;;;;;;4999002;28;20549;-79
2021/04/03 07:13:37;;;;;;;6.87;3.60;;;4.00;99.90;;;;;;4997680;28;20599;-78
2021/04/03 07:16:07;;;;;;;6.47;4.07;;;4.00;99.90;;;;;;4998674;28;20618;-78
2021/04/03 07:18:34;;;;;;;6.40;3.63;;;3.80;99.90;;;;;;4999791;28;20257;-78
2021/04/03 07:21:01;;;;;;;5.67;3.43;;;3.80;99.90;;;;;;4998036;28;20181;-78
2021/04/03 07:23:27;;;;;;;4.47;3.90;;;4.20;99.90;;;;;;4999193;28;20181;-78
2021/04/03 07:25:57;;;;;;;5.97;4.33;;;4.20;99.90;;;;;;4999518;28;20201;-78
2021/04/03 07:28:23;;;;;;;5.63;3.67;;;4.20;99.90;;;;;;4998734;28;20187;-78
2021/04/03 07:30:48;;;;;;;7.17;4.50;;;4.10;99.90;;;;;;4999023;28;20625;-78
2021/04/03 07:33:20;;;;;;;8.23;3.50;;;4.10;99.90;;;;;;4999289;28;20513;-78
2021/04/03 07:35:52;;;;;;;6.57;3.73;;;4.10;99.90;;;;;;4997164;28;20179;-78
2021/04/03 07:38:34;;;;;;;7.73;4.13;;;3.90;99.90;;;;;;4997051;28;20532;-76
2021/04/03 07:41:04;;;;;;;10.90;4.43;;;3.80;99.90;;;;;;4996123;28;20625;-76
2021/04/03 07:43:34;;;;;;;6.07;4.03;;;3.80;99.90;;;;;;4995661;28;20183;-76
2021/04/03 07:46:14;;;;;;;7.43;4.43;;;3.80;99.90;;;;;;4995492;28;20196;-76
2021/04/03 07:48:51;;;;;;;7.73;4.27;;;3.80;99.90;;;;;;4994413;28;20179;-76
2021/04/03 07:51:22;;;;;;;6.17;3.97;;;3.80;99.90;;;;;;4996527;28;20646;-78
2021/04/03 07:53:50;;;;;;;9.60;4.03;;;3.90;99.90;;;;;;4998076;28;20191;-78
2021/04/03 07:56:47;;;;;;;8.57;3.90;;;4.00;99.90;;;;;;4997123;28;20211;-78
2021/04/03 07:59:14;;;;;;;5.80;3.37;;;4.00;99.90;;;;;;4984753;28;20716;-78
2021/04/03 08:01:40;;;;;;;8.13;3.87;;;4.00;99.90;;;;;;4998273;28;20261;-78
2021/04/03 08:04:08;;;;;;;7.70;3.97;;;4.00;99.90;;;;;;4999741;28;20250;-78
2021/04/03 08:06:40;;;;;;;7.63;3.97;;;3.90;99.90;;;;;;4998050;28;20219;-78
2021/04/03 08:09:14;;;;;;;5.53;3.63;;;3.90;99.90;;;;;;4995036;28;20190;-78
2021/04/03 08:11:42;;;;;;;5.97;3.50;;;3.80;99.90;;;;;;4997440;28;20177;-78
2021/04/03 08:14:11;;;;;;;4.90;3.30;;;3.90;99.90;;;;;;4998644;28;20183;-78
2021/04/03 08:16:38;;;;;;;4.93;3.63;;;3.90;99.90;;;;;;4998320;28;20212;-78
2021/04/03 08:19:04;;;;;;;6.63;3.30;;;4.00;99.90;;;;;;4995313;28;20179;-78
2021/04/03 08:21:46;;;;;;;6.43;3.40;;;4.10;99.90;;;;;;4998003;28;20175;-78
2021/04/03 08:24:13;;;;;;;140.63;73.10;;;4.20;99.90;;;;;;4997964;28;20180;-78
2021/04/03 08:26:40;;;;;;;9.97;5.43;;;4.40;99.90;;;;;;4998457;28;20258;-78
2021/04/03 08:29:08;;;;;;;8.90;4.90;;;4.50;99.90;;;;;;5032025;28;20179;-77
2021/04/03 08:31:35;;;;;;;5.43;3.57;;;4.60;99.90;;;;;;4997600;28;20333;-78
2021/04/03 08:34:04;;;;;;;11.20;8.77;;;4.60;99.90;;;;;;4997205;28;20218;-78
2021/04/03 08:36:34;;;;;;;6.23;3.53;;;4.70;99.90;;;;;;4998696;28;20760;-78
2021/04/03 08:39:08;;;;;;;4.33;3.40;;;4.60;99.90;;;;;;4999400;28;20250;-78
2021/04/03 08:41:36;;;;;;;9.67;4.50;;;4.70;99.90;;;;;;4998721;28;20152;-78
2021/04/03 08:44:26;;;;;;;87.87;40.57;;;4.80;99.90;;;;;;4998761;28;20191;-77
2021/04/03 08:46:57;;;;;;;26.40;15.87;;;5.00;99.90;;;;;;4997229;28;20671;-78
2021/04/03 08:49:37;;;;;;;8.83;5.73;;;5.20;99.90;;;;;;4997545;28;20222;-78
2021/04/03 08:52:05;;;;;;;4.27;3.23;;;5.50;99.90;;;;;;4998662;28;20162;-78
2021/04/03 08:54:35;;;;;;;44.17;28.63;;;5.90;99.90;;;;;;4998644;28;20188;-79
2021/04/03 08:57:01;;;;;;;40.67;24.67;;;6.00;99.90;;;;;;4998263;28;20579;-79
2021/04/03 08:59:28;;;;;;;294.37;152.87;;;6.00;99.90;;;;;;4997163;28;20183;-78
2021/04/03 09:01:56;;;;;;;168.27;97.97;;;5.80;99.90;;;;;;4997745;28;20199;-79
2021/04/03 09:04:23;;;;;;;10.23;7.17;;;5.80;99.90;;;;;;4999123;28;20298;-78
2021/04/03 09:06:55;;;;;;;5.40;3.80;;;5.80;99.90;;;;;;4998139;28;20195;-78
2021/04/03 09:09:28;;;;;;;6.47;5.20;;;5.50;99.90;;;;;;4995299;28;20709;-79
2021/04/03 09:11:59;;;;;;;30.20;20.97;;;5.40;99.90;;;;;;4995401;28;20573;-78
2021/04/03 09:14:25;;;;;;;10.70;7.10;;;5.30;99.90;;;;;;4995964;28;20220;-78
2021/04/03 09:16:51;;;;;;;11.27;7.57;;;5.50;99.90;;;;;;4994976;28;20208;-78
2021/04/03 09:19:32;;;;;;;4.70;2.90;;;5.60;99.90;;;;;;4997805;28;20640;-78
2021/04/03 09:21:59;;;;;;;4.40;2.60;;;5.60;99.90;;;;;;4997600;28;20199;-76
2021/04/03 09:24:39;;;;;;;3.80;3.40;;;5.60;99.90;;;;;;4997290;28;20306;-76
2021/04/03 09:27:20;;;;;;;4.47;2.73;;;5.70;99.90;;;;;;4997225;28;20301;-77
2021/04/03 09:29:54;;;;;;;4.73;3.17;;;5.40;99.90;;;;;;4997338;28;20231;-77
2021/04/03 09:32:20;;;;;;;3.37;2.43;;;5.40;99.90;;;;;;4998837;28;20220;-76
2021/04/03 09:34:46;;;;;;;4.63;2.83;;;5.40;99.90;;;;;;4996668;28;21039;-77
2021/04/03 09:37:20;;;;;;;6.00;3.23;;;5.40;99.90;;;;;;4998059;28;20232;-77
2021/04/03 09:39:54;;;;;;;7.43;2.73;;;5.50;99.90;;;;;;4998302;28;20638;-77
2021/04/03 09:42:25;;;;;;;5.60;3.40;;;5.70;99.90;;;;;;4998278;28;20167;-77
2021/04/03 09:44:54;;;;;;;7.30;2.80;;;5.90;99.90;;;;;;4998172;28;20163;-77
2021/04/03 09:47:21;;;;;;;5.03;2.67;;;6.10;99.90;;;;;;4998133;28;20210;-76
2021/04/03 09:49:47;;;;;;;3.10;2.80;;;6.30;99.90;;;;;;4996935;28;20659;-77
2021/04/03 09:52:14;;;;;;;5.70;3.27;;;6.40;99.90;;;;;;4996802;28;20579;-77
2021/04/03 09:54:42;;;;;;;4.40;3.03;;;6.50;99.90;;;;;;4998046;28;20190;-77
2021/04/03 09:57:08;;;;;;;4.93;2.93;;;6.30;99.90;;;;;;4997762;28;20215;-77
2021/04/03 09:59:34;;;;;;;3.23;2.13;;;6.20;99.90;;;;;;4997799;28;20630;-77
2021/04/03 10:02:01;;;;;;;3.87;2.47;;;6.00;99.90;;;;;;4996561;28;20266;-77
2021/04/03 10:04:27;;;;;;;3.73;2.30;;;6.00;99.90;;;;;;4996420;28;20222;-77
2021/04/03 10:06:53;;;;;;;3.63;2.80;;;6.00;99.90;;;;;;4999165;28;20206;-77
2021/04/03 10:09:20;;;;;;;4.57;2.80;;;6.00;99.90;;;;;;5004862;28;20190;-77
2021/04/03 10:11:47;;;;;;;3.03;2.63;;;6.00;99.90;;;;;;5001757;28;20630;-77
2021/04/03 10:14:13;;;;;;;7.43;3.03;;;5.90;99.90;;;;;;4998884;28;20219;-77
2021/04/03 10:16:39;;;;;;;4.20;2.57;;;5.80;99.90;;;;;;4998496;28;20203;-79
2021/04/03 10:19:04;;;;;;;6.10;3.10;;;5.80;99.90;;;;;;5006648;28;20178;-78
2021/04/03 10:21:30;;;;;;;3.87;2.67;;;5.70;99.90;;;;;;5005219;28;20180;-78
2021/04/03 10:23:56;;;;;;;5.93;2.77;;;5.70;99.90;;;;;;5001052;28;20179;-79
2021/04/03 10:26:22;;;;;;;4.97;2.57;;;5.50;99.90;;;;;;4999149;28;20206;-77
2021/04/03 10:28:48;;;;;;;4.50;3.27;;;5.40;99.90;;;;;;4999405;28;20179;-77
2021/04/03 10:31:14;;;;;;;5.30;3.37;;;5.40;99.90;;;;;;4997448;28;20221;-77
2021/04/03 10:33:40;;;;;;;4.23;3.37;;;5.40;99.90;;;;;;5002026;28;20177;-78
2021/04/03 10:36:07;;;;;;;3.60;2.60;;;5.60;99.90;;;;;;5001742;28;20665;-78
2021/04/03 10:38:33;;;;;;;8.37;3.20;;;5.70;99.90;;;;;;4999976;28;20179;-78
2021/04/03 10:40:59;;;;;;;8.00;2.70;;;5.80;99.90;;;;;;4999932;28;20563;-78
2021/04/03 10:43:25;;;;;;;4.30;3.07;;;5.70;99.90;;;;;;5002282;28;20175;-78
2021/04/03 10:45:51;;;;;;;6.20;3.70;;;5.60;99.90;;;;;;5000539;28;20206;-78
2021/04/03 10:48:16;;;;;;;3.40;2.83;;;5.50;99.90;;;;;;4999757;28;20180;-78
2021/04/03 10:50:42;;;;;;;5.03;3.43;;;5.60;99.90;;;;;;4999753;28;20181;-78
2021/04/03 10:53:08;;;;;;;3.40;2.67;;;5.70;99.90;;;;;;4997659;28;20179;-76
2021/04/03 10:55:35;;;;;;;6.50;3.10;;;5.80;99.90;;;;;;4996953;28;20185;-78
2021/04/03 10:58:00;;;;;;;3.67;2.77;;;6.00;99.90;;;;;;5001412;28;20233;-78
2021/04/03 11:00:26;;;;;;;3.40;2.57;;;6.20;99.90;;;;;;5032194;28;20180;-78
2021/04/03 11:02:52;;;;;;;5.60;4.10;;;6.30;99.90;;;;;;4999437;28;20240;-78
2021/04/03 11:05:18;;;;;;;4.90;3.20;;;6.30;99.90;;;;;;5000176;28;20180;-78
2021/04/03 11:07:44;;;;;;;3.37;3.00;;;6.40;99.90;;;;;;5000513;28;20221;-79
2021/04/03 11:10:12;;;;;;;3.73;2.57;;;6.40;99.90;;;;;;5000706;28;20187;-78
2021/04/03 11:12:37;;;;;;;4.13;2.90;;;6.40;99.90;;;;;;5001974;28;20199;-79
2021/04/03 11:15:04;;;;;;;6.37;3.30;;;6.40;99.90;;;;;;5000665;28;20188;-79
2021/04/03 11:17:29;;;;;;;3.27;2.67;;;6.50;99.90;;;;;;5000914;28;20210;-78
2021/04/03 11:19:55;;;;;;;4.13;2.90;;;6.50;99.10;;;;;;5001090;28;20171;-79
2021/04/03 11:22:21;;;;;;;5.00;2.47;;;6.50;99.90;;;;;;5001157;28;20289;-78
2021/04/03 11:24:46;;;;;;;6.73;2.80;;;6.50;99.40;;;;;;5000422;28;20197;-78
2021/04/03 11:27:12;;;;;;;6.10;3.93;;;6.50;99.90;;;;;;5000181;28;20196;-78
2021/04/03 11:29:37;;;;;;;4.77;2.90;;;6.60;99.20;;;;;;4999912;28;20226;-78
2021/04/03 11:32:04;;;;;;;5.80;3.80;;;6.80;98.20;;;;;;5000623;28;20194;-79
2021/04/03 11:34:29;;;;;;;4.43;2.77;;;6.80;98.90;;;;;;4998496;28;20248;-78
2021/04/03 11:36:55;;;;;;;5.30;3.37;;;6.80;97.80;;;;;;5000687;28;20559;-78
2021/04/03 11:39:20;;;;;;;6.00;3.23;;;6.80;98.00;;;;;;4997689;28;20179;-78
2021/04/03 11:41:46;;;;;;;3.27;2.10;;;6.80;97.40;;;;;;4999867;28;20172;-78
2021/04/03 11:44:11;;;;;;;8.47;3.30;;;6.80;96.10;;;;;;4998041;28;20175;-78
2021/04/03 11:46:37;;;;;;;4.10;2.60;;;6.80;96.80;;;;;;4998964;28;20196;-78
2021/04/03 11:49:03;;;;;;;2.67;2.30;;;6.80;95.50;;;;;;5000276;28;20185;-78
2021/04/03 11:51:30;;;;;;;3.30;2.47;;;7.00;97.00;;;;;;4998317;28;20537;-78
2021/04/03 11:53:56;;;;;;;4.87;2.70;;;6.80;94.60;;;;;;4999720;28;20245;-78
2021/04/03 11:56:22;;;;;;;3.37;2.50;;;6.70;95.90;;;;;;4999097;28;20606;-78
2021/04/03 11:58:48;;;;;;;4.83;2.67;;;6.80;95.90;;;;;;4998035;28;20163;-76
2021/04/03 12:01:14;;;;;;;5.97;3.10;;;6.90;95.50;;;;;;4995866;28;20234;-76
2021/04/03 12:03:40;;;;;;;5.73;2.60;;;7.80;96.70;;;;;;4996370;28;20183;-76
2021/04/03 12:06:06;;;;;;;6.63;3.17;;;9.70;95.20;;;;;;4995717;28;20266;-76
2021/04/03 12:08:31;;;;;;;6.00;2.53;;;11.30;91.40;;;;;;4994662;28;20179;-76
2021/04/03 12:10:57;;;;;;;6.03;2.70;;;12.50;90.20;;;;;;4996155;28;20171;-76
2021/04/03 12:13:23;;;;;;;2.93;2.30;;;12.80;77.70;;;;;;4995996;28;20634;-77
2021/04/03 12:15:49;;;;;;;19.13;17.43;;;12.50;69.40;;;;;;4995624;28;20195;-77
2021/04/03 12:18:14;;;;;;;12.37;6.67;;;12.60;70.70;;;;;;4995298;28;20209;-77
2021/04/03 12:20:40;;;;;;;3.70;2.50;;;11.70;70.40;;;;;;4995671;28;20176;-78
2021/04/03 12:23:06;;;;;;;2.80;2.10;;;11.20;71.90;;;;;;4995437;28;20207;-77
2021/04/03 12:25:31;;;;;;;4.47;2.10;;;10.70;70.80;;;;;;4994691;28;20181;-76
2021/04/03 12:27:57;;;;;;;3.00;2.13;;;9.70;71.50;;;;;;4993603;28;20595;-76
2021/04/03 12:30:23;;;;;;;4.83;3.60;;;9.20;73.50;;;;;;4994920;28;20230;-76
2021/04/03 12:32:48;;;;;;;4.20;3.07;;;9.00;78.00;;;;;;4995284;28;20238;-76
2021/04/03 12:35:15;;;;;;;4.13;2.43;;;8.70;77.90;;;;;;4993427;28;20184;-76
2021/04/03 12:37:40;;;;;;;4.37;2.47;;;8.60;78.50;;;;;;4994758;28;20287;-76
2021/04/03 12:40:07;;;;;;;4.60;2.50;;;8.30;79.70;;;;;;4995990;28;20255;-76
2021/04/03 12:42:33;;;;;;;4.67;2.80;;;8.20;81.20;;;;;;4994711;28;20176;-78
2021/04/03 12:45:00;;;;;;;3.50;2.70;;;8.10;79.40;;;;;;4995476;28;20230;-76
2021/04/03 12:47:25;;;;;;;2.83;2.37;;;7.90;81.70;;;;;;4995127;28;20333;-77
2021/04/03 12:49:51;;;;;;;6.87;3.10;;;7.70;83.30;;;;;;4995325;28;20207;-78
2021/04/03 12:52:17;;;;;;;4.23;2.47;;;7.70;82.60;;;;;;4995007;28;20221;-76
2021/04/03 12:54:43;;;;;;;4.37;3.17;;;7.50;85.20;;;;;;4994754;28;20171;-78
2021/04/03 12:57:09;;;;;;;3.73;2.30;;;7.50;85.00;;;;;;4995043;28;20207;-75
2021/04/03 12:59:35;;;;;;;3.53;2.67;;;7.30;82.80;;;;;;4995435;28;20246;-76